sensor_id;sensor_type;location;lat;lon;timestamp;pressure;altitude;pressure_sealevel;temperature;humidity
7930;BME280;4010;42.698;23.124;2023-12-07T00:01:21;118349.16;;;-140.64;100.00
7930;BME280;4010;42.698;23.124;2023-12-07T00:03:47;118349.16;;;-140.64;100.00
7930;BME280;4010;42.698;23.124;2023-12-07T00:06:14;118349.16;;;-140.64;100.00
7930;BME280;4010;42.698;23.124;2023-12-07T00:08:42;118349.16;;;-140.64;100.00
7930;BME280;4010;42.698;23.124;2023-12-07T00:11:09;118349.16;;;-140.64;100.00
7930;BME280;4010;42.698;23.124;2023-12-07T00:13:35;118349.16;;;-140.64;100.00
7930;BME280;4010;42.698;23.124;2023-12-07T00:16:02;118349.16;;;-140.64;100.00
7930;BME280;4010;42.698;23.124;2023-12-07T00:18:29;118349.16;;;-140.64;100.00
7930;BME280;4010;42.698;23.124;2023-12-07T00:20:56;118349.16;;;-140.64;100.00
7930;BME280;4010;42.698;23.124;2023-12-07T00:23:23;118349.16;;;-140.64;100.00
7930;BME280;4010;42.698;23.124;2023-12-07T00:25:51;118349.16;;;-140.64;100.00
7930;BME280;4010;42.698;23.124;2023-12-07T00:28:18;118349.16;;;-140.64;100.00
7930;BME280;4010;42.698;23.124;2023-12-07T00:30:44;118349.16;;;-140.64;100.00
7930;BME280;4010;42.698;23.124;2023-12-07T00:33:11;118349.16;;;-140.64;100.00
7930;BME280;4010;42.698;23.124;2023-12-07T00:35:38;118349.16;;;-140.64;100.00
7930;BME280;4010;42.698;23.124;2023-12-07T00:38:05;118349.16;;;-140.64;100.00
7930;BME280;4010;42.698;23.124;2023-12-07T00:40:33;118349.16;;;-140.64;100.00
7930;BME280;4010;42.698;23.124;2023-12-07T00:43:03;118349.16;;;-140.64;100.00
7930;BME280;4010;42.698;23.124;2023-12-07T00:45:30;118349.16;;;-140.64;100.00
7930;BME280;4010;42.698;23.124;2023-12-07T00:47:57;118349.16;;;-140.64;100.00
7930;BME280;4010;42.698;23.124;2023-12-07T00:50:23;118349.16;;;-140.64;100.00
7930;BME280;4010;42.698;23.124;2023-12-07T00:52:50;118349.16;;;-140.64;100.00
7930;BME280;4010;42.698;23.124;2023-12-07T00:55:17;118349.16;;;-140.64;100.00
7930;BME280;4010;42.698;23.124;2023-12-07T00:57:44;118349.16;;;-140.64;100.00
7930;BME280;4010;42.698;23.124;2023-12-07T01:00:13;118349.16;;;-140.64;100.00
7930;BME280;4010;42.698;23.124;2023-12-07T01:02:39;118349.16;;;-140.64;100.00
7930;BME280;4010;42.698;23.124;2023-12-07T01:05:06;118349.16;;;-140.64;100.00
7930;BME280;4010;42.698;23.124;2023-12-07T01:07:34;118349.16;;;-140.64;100.00
7930;BME280;4010;42.698;23.124;2023-12-07T01:10:00;118349.16;;;-140.64;100.00
7930;BME280;4010;42.698;23.124;2023-12-07T01:12:27;118349.16;;;-140.64;100.00
7930;BME280;4010;42.698;23.124;2023-12-07T01:14:54;118349.16;;;-140.64;100.00
7930;BME280;4010;42.698;23.124;2023-12-07T01:17:22;118349.16;;;-140.64;100.00
7930;BME280;4010;42.698;23.124;2023-12-07T01:19:49;118349.16;;;-140.64;100.00
7930;BME280;4010;42.698;23.124;2023-12-07T01:22:16;118349.16;;;-140.64;100.00
7930;BME280;4010;42.698;23.124;2023-12-07T01:24:42;118349.16;;;-140.64;100.00
7930;BME280;4010;42.698;23.124;2023-12-07T01:27:09;118349.16;;;-140.64;100.00
7930;BME280;4010;42.698;23.124;2023-12-07T01:29:36;118349.16;;;-140.64;100.00
7930;BME280;4010;42.698;23.124;2023-12-07T01:32:04;118349.16;;;-140.64;100.00
7930;BME280;4010;42.698;23.124;2023-12-07T01:34:32;118349.16;;;-140.64;100.00
7930;BME280;4010;42.698;23.124;2023-12-07T01:36:59;118349.16;;;-140.64;100.00
7930;BME280;4010;42.698;23.124;2023-12-07T01:39:26;118349.16;;;-140.64;100.00
7930;BME280;4010;42.698;23.124;2023-12-07T01:41:53;118349.16;;;-140.64;100.00
7930;BME280;4010;42.698;23.124;2023-12-07T01:44:19;118349.16;;;-140.64;100.00
7930;BME280;4010;42.698;23.124;2023-12-07T01:46:46;118349.16;;;-140.64;100.00
7930;BME280;4010;42.698;23.124;2023-12-07T01:49:13;118349.16;;;-140.64;100.00
7930;BME280;4010;42.698;23.124;2023-12-07T01:51:41;118349.16;;;-140.64;100.00
7930;BME280;4010;42.698;23.124;2023-12-07T01:54:08;118349.16;;;-140.64;100.00
7930;BME280;4010;42.698;23.124;2023-12-07T01:56:36;118349.16;;;-140.64;100.00
7930;BME280;4010;42.698;23.124;2023-12-07T01:59:03;118349.16;;;-140.64;100.00
7930;BME280;4010;42.698;23.124;2023-12-07T02:01:29;118349.16;;;-140.64;100.00
7930;BME280;4010;42.698;23.124;2023-12-07T02:03:56;118349.16;;;-140.64;100.00
7930;BME280;4010;42.698;23.124;2023-12-07T02:06:23;118349.16;;;-140.64;100.00
7930;BME280;4010;42.698;23.124;2023-12-07T02:08:51;118349.16;;;-140.64;100.00
7930;BME280;4010;42.698;23.124;2023-12-07T02:11:18;118349.16;;;-140.64;100.00
7930;BME280;4010;42.698;23.124;2023-12-07T02:13:45;118349.16;;;-140.64;100.00
7930;BME280;4010;42.698;23.124;2023-12-07T02:16:17;118349.16;;;-140.64;100.00
7930;BME280;4010;42.698;23.124;2023-12-07T02:18:51;118349.16;;;-140.64;100.00
7930;BME280;4010;42.698;23.124;2023-12-07T02:21:28;118349.16;;;-140.64;100.00
7930;BME280;4010;42.698;23.124;2023-12-07T02:23:58;118349.16;;;-140.64;100.00
7930;BME280;4010;42.698;23.124;2023-12-07T02:26:31;118349.16;;;-140.64;100.00
7930;BME280;4010;42.698;23.124;2023-12-07T02:28:58;118349.16;;;-140.64;100.00
7930;BME280;4010;42.698;23.124;2023-12-07T02:31:25;118349.16;;;-140.64;100.00
7930;BME280;4010;42.698;23.124;2023-12-07T02:33:52;118349.16;;;-140.64;100.00
7930;BME280;4010;42.698;23.124;2023-12-07T02:36:20;118349.16;;;-140.64;100.00
7930;BME280;4010;42.698;23.124;2023-12-07T02:38:49;118349.16;;;-140.64;100.00
7930;BME280;4010;42.698;23.124;2023-12-07T02:41:18;118349.16;;;-140.64;100.00
7930;BME280;4010;42.698;23.124;2023-12-07T02:43:46;118349.16;;;-140.64;100.00
7930;BME280;4010;42.698;23.124;2023-12-07T02:46:13;118349.16;;;-140.64;100.00
7930;BME280;4010;42.698;23.124;2023-12-07T02:48:40;118349.16;;;-140.64;100.00
7930;BME280;4010;42.698;23.124;2023-12-07T02:51:07;118349.16;;;-140.64;100.00
7930;BME280;4010;42.698;23.124;2023-12-07T02:53:34;118349.16;;;-140.64;100.00
7930;BME280;4010;42.698;23.124;2023-12-07T02:56:00;118349.16;;;-140.64;100.00
7930;BME280;4010;42.698;23.124;2023-12-07T02:58:27;118349.16;;;-140.64;100.00
7930;BME280;4010;42.698;23.124;2023-12-07T03:00:56;118349.16;;;-140.64;100.00
7930;BME280;4010;42.698;23.124;2023-12-07T03:03:22;118349.16;;;-140.64;100.00
7930;BME280;4010;42.698;23.124;2023-12-07T03:05:49;118349.16;;;-140.64;100.00
7930;BME280;4010;42.698;23.124;2023-12-07T03:08:16;118349.16;;;-140.64;100.00
7930;BME280;4010;42.698;23.124;2023-12-07T03:10:43;118349.16;;;-140.64;100.00
7930;BME280;4010;42.698;23.124;2023-12-07T03:13:09;118349.16;;;-140.64;100.00
7930;BME280;4010;42.698;23.124;2023-12-07T03:15:36;118349.16;;;-140.64;100.00
7930;BME280;4010;42.698;23.124;2023-12-07T03:18:04;118349.16;;;-140.64;100.00
7930;BME280;4010;42.698;23.124;2023-12-07T03:20:32;118349.16;;;-140.64;100.00
7930;BME280;4010;42.698;23.124;2023-12-07T03:22:59;118349.16;;;-140.64;100.00
7930;BME280;4010;42.698;23.124;2023-12-07T03:25:26;118349.16;;;-140.64;100.00
7930;BME280;4010;42.698;23.124;2023-12-07T03:27:52;118349.16;;;-140.64;100.00
7930;BME280;4010;42.698;23.124;2023-12-07T03:30:19;118349.16;;;-140.64;100.00
7930;BME280;4010;42.698;23.124;2023-12-07T03:32:46;118349.16;;;-140.64;100.00
7930;BME280;4010;42.698;23.124;2023-12-07T03:35:14;118349.16;;;-140.64;100.00
7930;BME280;4010;42.698;23.124;2023-12-07T03:37:41;118349.16;;;-140.64;100.00
7930;BME280;4010;42.698;23.124;2023-12-07T03:40:08;118349.16;;;-140.64;100.00
7930;BME280;4010;42.698;23.124;2023-12-07T03:42:35;118349.16;;;-140.64;100.00
7930;BME280;4010;42.698;23.124;2023-12-07T03:45:03;118349.16;;;-140.64;100.00
7930;BME280;4010;42.698;23.124;2023-12-07T03:47:29;118349.16;;;-140.64;100.00
7930;BME280;4010;42.698;23.124;2023-12-07T03:49:56;118349.16;;;-140.64;100.00
7930;BME280;4010;42.698;23.124;2023-12-07T03:52:24;118349.16;;;-140.64;100.00
7930;BME280;4010;42.698;23.124;2023-12-07T03:54:51;118349.16;;;-140.64;100.00
7930;BME280;4010;42.698;23.124;2023-12-07T03:57:18;118349.16;;;-140.64;100.00
7930;BME280;4010;42.698;23.124;2023-12-07T03:59:45;118349.16;;;-140.64;100.00
7930;BME280;4010;42.698;23.124;2023-12-07T04:02:12;118349.16;;;-140.64;100.00
7930;BME280;4010;42.698;23.124;2023-12-07T04:04:39;118349.16;;;-140.64;100.00
7930;BME280;4010;42.698;23.124;2023-12-07T04:07:06;118349.16;;;-140.64;100.00
7930;BME280;4010;42.698;23.124;2023-12-07T04:09:34;118349.16;;;-140.64;100.00
7930;BME280;4010;42.698;23.124;2023-12-07T04:12:01;118349.16;;;-140.64;100.00
7930;BME280;4010;42.698;23.124;2023-12-07T04:14:28;118349.16;;;-140.64;100.00
7930;BME280;4010;42.698;23.124;2023-12-07T04:16:55;118349.16;;;-140.64;100.00
7930;BME280;4010;42.698;23.124;2023-12-07T04:19:21;118349.16;;;-140.64;100.00
7930;BME280;4010;42.698;23.124;2023-12-07T04:21:48;118349.16;;;-140.64;100.00
7930;BME280;4010;42.698;23.124;2023-12-07T04:24:15;118349.16;;;-140.64;100.00
7930;BME280;4010;42.698;23.124;2023-12-07T04:26:43;118349.16;;;-140.64;100.00
7930;BME280;4010;42.698;23.124;2023-12-07T04:29:10;118349.16;;;-140.64;100.00
7930;BME280;4010;42.698;23.124;2023-12-07T04:31:37;118349.16;;;-140.64;100.00
7930;BME280;4010;42.698;23.124;2023-12-07T04:34:03;118349.16;;;-140.64;100.00
7930;BME280;4010;42.698;23.124;2023-12-07T04:36:30;118349.16;;;-140.64;100.00
7930;BME280;4010;42.698;23.124;2023-12-07T04:38:57;118349.16;;;-140.64;100.00
7930;BME280;4010;42.698;23.124;2023-12-07T04:41:24;118349.16;;;-140.64;100.00
7930;BME280;4010;42.698;23.124;2023-12-07T04:43:52;118349.16;;;-140.64;100.00
7930;BME280;4010;42.698;23.124;2023-12-07T04:46:18;118349.16;;;-140.64;100.00
7930;BME280;4010;42.698;23.124;2023-12-07T04:48:45;118349.16;;;-140.64;100.00
7930;BME280;4010;42.698;23.124;2023-12-07T04:51:12;118349.16;;;-140.64;100.00
7930;BME280;4010;42.698;23.124;2023-12-07T04:53:39;118349.16;;;-140.64;100.00
7930;BME280;4010;42.698;23.124;2023-12-07T04:56:06;118349.16;;;-140.64;100.00
7930;BME280;4010;42.698;23.124;2023-12-07T04:58:33;118349.16;;;-140.64;100.00
7930;BME280;4010;42.698;23.124;2023-12-07T05:01:01;118349.16;;;-140.64;100.00
7930;BME280;4010;42.698;23.124;2023-12-07T05:03:29;118349.16;;;-140.64;100.00
7930;BME280;4010;42.698;23.124;2023-12-07T05:05:56;118349.16;;;-140.64;100.00
7930;BME280;4010;42.698;23.124;2023-12-07T05:08:23;118349.16;;;-140.64;100.00
7930;BME280;4010;42.698;23.124;2023-12-07T05:10:49;118349.16;;;-140.64;100.00
7930;BME280;4010;42.698;23.124;2023-12-07T05:13:17;118349.16;;;-140.64;100.00
7930;BME280;4010;42.698;23.124;2023-12-07T05:15:43;118349.16;;;-140.64;100.00
7930;BME280;4010;42.698;23.124;2023-12-07T05:18:13;118349.16;;;-140.64;100.00
7930;BME280;4010;42.698;23.124;2023-12-07T05:20:40;118349.16;;;-140.64;100.00
7930;BME280;4010;42.698;23.124;2023-12-07T05:23:08;118349.16;;;-140.64;100.00
7930;BME280;4010;42.698;23.124;2023-12-07T05:25:35;118349.16;;;-140.64;100.00
7930;BME280;4010;42.698;23.124;2023-12-07T05:28:01;118349.16;;;-140.64;100.00
7930;BME280;4010;42.698;23.124;2023-12-07T05:30:28;118349.16;;;-140.64;100.00
7930;BME280;4010;42.698;23.124;2023-12-07T05:32:55;118349.16;;;-140.64;100.00
7930;BME280;4010;42.698;23.124;2023-12-07T05:35:24;118349.16;;;-140.64;100.00
7930;BME280;4010;42.698;23.124;2023-12-07T05:37:50;118349.16;;;-140.64;100.00
7930;BME280;4010;42.698;23.124;2023-12-07T05:40:17;118349.16;;;-140.64;100.00
7930;BME280;4010;42.698;23.124;2023-12-07T05:42:44;118349.16;;;-140.64;100.00
7930;BME280;4010;42.698;23.124;2023-12-07T05:45:11;118349.16;;;-140.64;100.00
7930;BME280;4010;42.698;23.124;2023-12-07T05:47:36;118349.16;;;-140.64;100.00
7930;BME280;4010;42.698;23.124;2023-12-07T05:50:04;118349.16;;;-140.64;100.00
7930;BME280;4010;42.698;23.124;2023-12-07T05:52:32;118349.16;;;-140.64;100.00
7930;BME280;4010;42.698;23.124;2023-12-07T05:54:59;118349.16;;;-140.64;100.00
7930;BME280;4010;42.698;23.124;2023-12-07T05:57:25;118349.16;;;-140.64;100.00
7930;BME280;4010;42.698;23.124;2023-12-07T05:59:52;118349.16;;;-140.64;100.00
7930;BME280;4010;42.698;23.124;2023-12-07T06:02:19;118349.16;;;-140.64;100.00
7930;BME280;4010;42.698;23.124;2023-12-07T06:04:46;118349.16;;;-140.64;100.00
7930;BME280;4010;42.698;23.124;2023-12-07T06:07:13;118349.16;;;-140.64;100.00
7930;BME280;4010;42.698;23.124;2023-12-07T06:09:41;118349.16;;;-140.64;100.00
7930;BME280;4010;42.698;23.124;2023-12-07T06:12:08;118349.16;;;-140.64;100.00
7930;BME280;4010;42.698;23.124;2023-12-07T06:14:34;118349.16;;;-140.64;100.00
7930;BME280;4010;42.698;23.124;2023-12-07T06:17:01;118349.16;;;-140.64;100.00
7930;BME280;4010;42.698;23.124;2023-12-07T06:19:28;118349.16;;;-140.64;100.00
7930;BME280;4010;42.698;23.124;2023-12-07T06:21:56;118349.16;;;-140.64;100.00
7930;BME280;4010;42.698;23.124;2023-12-07T06:24:24;118349.16;;;-140.64;100.00
7930;BME280;4010;42.698;23.124;2023-12-07T06:26:52;118349.16;;;-140.64;100.00
7930;BME280;4010;42.698;23.124;2023-12-07T06:29:18;118349.16;;;-140.64;100.00
7930;BME280;4010;42.698;23.124;2023-12-07T06:31:45;118349.16;;;-140.64;100.00
7930;BME280;4010;42.698;23.124;2023-12-07T06:34:12;118349.16;;;-140.64;100.00
7930;BME280;4010;42.698;23.124;2023-12-07T06:36:39;118349.16;;;-140.64;100.00
7930;BME280;4010;42.698;23.124;2023-12-07T06:39:05;118349.16;;;-140.64;100.00
7930;BME280;4010;42.698;23.124;2023-12-07T06:41:32;118349.16;;;-140.64;100.00
7930;BME280;4010;42.698;23.124;2023-12-07T06:44:01;118349.16;;;-140.64;100.00
7930;BME280;4010;42.698;23.124;2023-12-07T06:46:28;118349.16;;;-140.64;100.00
7930;BME280;4010;42.698;23.124;2023-12-07T06:48:55;118349.16;;;-140.64;100.00
7930;BME280;4010;42.698;23.124;2023-12-07T06:51:21;118349.16;;;-140.64;100.00
7930;BME280;4010;42.698;23.124;2023-12-07T06:53:48;118349.16;;;-140.64;100.00
7930;BME280;4010;42.698;23.124;2023-12-07T06:56:15;118349.16;;;-140.64;100.00
7930;BME280;4010;42.698;23.124;2023-12-07T06:58:42;118349.16;;;-140.64;100.00
7930;BME280;4010;42.698;23.124;2023-12-07T07:01:10;118349.16;;;-140.64;100.00
7930;BME280;4010;42.698;23.124;2023-12-07T07:03:38;118349.16;;;-140.64;100.00
7930;BME280;4010;42.698;23.124;2023-12-07T07:06:05;118349.16;;;-140.64;100.00
7930;BME280;4010;42.698;23.124;2023-12-07T07:08:31;118349.16;;;-140.64;100.00
7930;BME280;4010;42.698;23.124;2023-12-07T07:10:58;118349.16;;;-140.64;100.00
7930;BME280;4010;42.698;23.124;2023-12-07T07:13:25;118349.16;;;-140.64;100.00
7930;BME280;4010;42.698;23.124;2023-12-07T07:15:52;118349.16;;;-140.64;100.00
7930;BME280;4010;42.698;23.124;2023-12-07T07:18:21;118349.16;;;-140.64;100.00
7930;BME280;4010;42.698;23.124;2023-12-07T07:20:49;118349.16;;;-140.64;100.00
7930;BME280;4010;42.698;23.124;2023-12-07T07:23:16;118349.16;;;-140.64;100.00
7930;BME280;4010;42.698;23.124;2023-12-07T07:25:43;118349.16;;;-140.64;100.00
7930;BME280;4010;42.698;23.124;2023-12-07T07:28:09;118349.16;;;-140.64;100.00
7930;BME280;4010;42.698;23.124;2023-12-07T07:30:36;118349.16;;;-140.64;100.00
7930;BME280;4010;42.698;23.124;2023-12-07T07:33:03;118349.16;;;-140.64;100.00
7930;BME280;4010;42.698;23.124;2023-12-07T07:35:31;118349.16;;;-140.64;100.00
7930;BME280;4010;42.698;23.124;2023-12-07T07:37:58;118349.16;;;-140.64;100.00
7930;BME280;4010;42.698;23.124;2023-12-07T07:40:25;118349.16;;;-140.64;100.00
7930;BME280;4010;42.698;23.124;2023-12-07T07:42:52;118349.16;;;-140.64;100.00
7930;BME280;4010;42.698;23.124;2023-12-07T07:45:19;118349.16;;;-140.64;100.00
7930;BME280;4010;42.698;23.124;2023-12-07T07:47:45;118349.16;;;-140.64;100.00
7930;BME280;4010;42.698;23.124;2023-12-07T07:50:12;118349.16;;;-140.64;100.00
7930;BME280;4010;42.698;23.124;2023-12-07T07:52:40;118349.16;;;-140.64;100.00
7930;BME280;4010;42.698;23.124;2023-12-07T07:55:10;118349.16;;;-140.64;100.00
7930;BME280;4010;42.698;23.124;2023-12-07T07:57:37;118349.16;;;-140.64;100.00
7930;BME280;4010;42.698;23.124;2023-12-07T08:00:05;118349.16;;;-140.64;100.00
7930;BME280;4010;42.698;23.124;2023-12-07T08:02:33;118349.16;;;-140.64;100.00
7930;BME280;4010;42.698;23.124;2023-12-07T08:05:00;118349.16;;;-140.64;100.00
7930;BME280;4010;42.698;23.124;2023-12-07T08:07:27;118349.16;;;-140.64;100.00
7930;BME280;4010;42.698;23.124;2023-12-07T08:09:55;118349.16;;;-140.64;100.00
7930;BME280;4010;42.698;23.124;2023-12-07T08:12:22;118349.16;;;-140.64;100.00
7930;BME280;4010;42.698;23.124;2023-12-07T08:14:49;118349.16;;;-140.64;100.00
7930;BME280;4010;42.698;23.124;2023-12-07T08:17:16;118349.16;;;-140.64;100.00
7930;BME280;4010;42.698;23.124;2023-12-07T08:19:44;118349.16;;;-140.64;100.00
7930;BME280;4010;42.698;23.124;2023-12-07T08:22:11;118349.16;;;-140.64;100.00
7930;BME280;4010;42.698;23.124;2023-12-07T08:24:38;118349.16;;;-140.64;100.00
7930;BME280;4010;42.698;23.124;2023-12-07T08:27:07;118349.16;;;-140.64;100.00
7930;BME280;4010;42.698;23.124;2023-12-07T08:29:34;118349.16;;;-140.64;100.00
7930;BME280;4010;42.698;23.124;2023-12-07T08:32:00;118349.16;;;-140.64;100.00
7930;BME280;4010;42.698;23.124;2023-12-07T08:34:27;118349.16;;;-140.64;100.00
7930;BME280;4010;42.698;23.124;2023-12-07T08:36:54;118349.16;;;-140.64;100.00
7930;BME280;4010;42.698;23.124;2023-12-07T08:39:21;118349.16;;;-140.64;100.00
7930;BME280;4010;42.698;23.124;2023-12-07T08:41:48;118349.16;;;-140.64;100.00
7930;BME280;4010;42.698;23.124;2023-12-07T08:44:16;118349.16;;;-140.64;100.00
7930;BME280;4010;42.698;23.124;2023-12-07T08:46:43;118349.16;;;-140.64;100.00
7930;BME280;4010;42.698;23.124;2023-12-07T08:49:10;118349.16;;;-140.64;100.00
7930;BME280;4010;42.698;23.124;2023-12-07T08:51:37;118349.16;;;-140.64;100.00
7930;BME280;4010;42.698;23.124;2023-12-07T08:54:04;118349.16;;;-140.64;100.00
7930;BME280;4010;42.698;23.124;2023-12-07T08:56:31;118349.16;;;-140.64;100.00
7930;BME280;4010;42.698;23.124;2023-12-07T08:58:58;118349.16;;;-140.64;100.00
7930;BME280;4010;42.698;23.124;2023-12-07T09:01:26;118349.16;;;-140.64;100.00
7930;BME280;4010;42.698;23.124;2023-12-07T09:03:53;118349.16;;;-140.64;100.00
7930;BME280;4010;42.698;23.124;2023-12-07T09:06:20;118349.16;;;-140.64;100.00
7930;BME280;4010;42.698;23.124;2023-12-07T09:08:47;118349.16;;;-140.64;100.00
7930;BME280;4010;42.698;23.124;2023-12-07T09:11:13;118349.16;;;-140.64;100.00
7930;BME280;4010;42.698;23.124;2023-12-07T09:13:40;118349.16;;;-140.64;100.00
7930;BME280;4010;42.698;23.124;2023-12-07T09:16:07;118349.16;;;-140.64;100.00
7930;BME280;4010;42.698;23.124;2023-12-07T09:18:35;118349.16;;;-140.64;100.00
7930;BME280;4010;42.698;23.124;2023-12-07T09:21:02;118349.16;;;-140.64;100.00
7930;BME280;4010;42.698;23.124;2023-12-07T09:23:29;118349.16;;;-140.64;100.00
7930;BME280;4010;42.698;23.124;2023-12-07T09:25:56;118349.16;;;-140.64;100.00
7930;BME280;4010;42.698;23.124;2023-12-07T09:28:23;118349.16;;;-140.64;100.00
7930;BME280;4010;42.698;23.124;2023-12-07T09:30:50;118349.16;;;-140.64;100.00
7930;BME280;4010;42.698;23.124;2023-12-07T09:33:17;118349.16;;;-140.64;100.00
7930;BME280;4010;42.698;23.124;2023-12-07T09:35:45;118349.16;;;-140.64;100.00
7930;BME280;4010;42.698;23.124;2023-12-07T09:38:12;118349.16;;;-140.64;99.47
7930;BME280;4010;42.698;23.124;2023-12-07T09:40:39;118349.16;;;-140.64;100.00
7930;BME280;4010;42.698;23.124;2023-12-07T09:43:06;118349.16;;;-140.64;100.00
7930;BME280;4010;42.698;23.124;2023-12-07T09:45:33;118349.16;;;-140.64;100.00
7930;BME280;4010;42.698;23.124;2023-12-07T09:47:59;118349.16;;;-140.64;99.67
7930;BME280;4010;42.698;23.124;2023-12-07T09:50:27;118349.16;;;-140.64;99.18
7930;BME280;4010;42.698;23.124;2023-12-07T09:52:56;118349.16;;;-140.64;98.91
7930;BME280;4010;42.698;23.124;2023-12-07T09:55:24;118349.16;;;-140.64;97.59
7930;BME280;4010;42.698;23.124;2023-12-07T09:57:50;118349.16;;;-140.64;96.93
7930;BME280;4010;42.698;23.124;2023-12-07T10:00:20;118349.16;;;-140.64;96.80
7930;BME280;4010;42.698;23.124;2023-12-07T10:02:46;118349.16;;;-140.64;96.59
7930;BME280;4010;42.698;23.124;2023-12-07T10:05:14;118349.16;;;-140.64;96.08
7930;BME280;4010;42.698;23.124;2023-12-07T10:07:43;118349.16;;;-140.64;97.20
7930;BME280;4010;42.698;23.124;2023-12-07T10:10:13;118349.16;;;-140.64;97.65
7930;BME280;4010;42.698;23.124;2023-12-07T10:12:45;118349.16;;;-140.64;98.24
7930;BME280;4010;42.698;23.124;2023-12-07T10:15:13;118349.16;;;-140.64;97.48
7930;BME280;4010;42.698;23.124;2023-12-07T10:17:43;118349.16;;;-140.64;94.77
7930;BME280;4010;42.698;23.124;2023-12-07T10:20:12;118349.16;;;-140.64;96.09
7930;BME280;4010;42.698;23.124;2023-12-07T10:22:39;118349.16;;;-140.64;96.50
7930;BME280;4010;42.698;23.124;2023-12-07T10:25:07;118349.16;;;-140.64;97.20
7930;BME280;4010;42.698;23.124;2023-12-07T10:27:37;118349.16;;;-140.64;96.77
7930;BME280;4010;42.698;23.124;2023-12-07T10:30:09;118349.16;;;-140.64;96.07
7930;BME280;4010;42.698;23.124;2023-12-07T10:32:36;118349.16;;;-140.64;96.52
7930;BME280;4010;42.698;23.124;2023-12-07T10:35:06;118349.16;;;-140.64;95.83
7930;BME280;4010;42.698;23.124;2023-12-07T10:37:33;118349.16;;;-140.64;95.36
7930;BME280;4010;42.698;23.124;2023-12-07T10:40:00;118349.16;;;-140.64;95.22
7930;BME280;4010;42.698;23.124;2023-12-07T10:42:32;118349.16;;;-140.64;95.95
7930;BME280;4010;42.698;23.124;2023-12-07T10:45:05;118349.16;;;-140.64;96.13
7930;BME280;4010;42.698;23.124;2023-12-07T10:47:35;118349.16;;;-140.64;96.25
7930;BME280;4010;42.698;23.124;2023-12-07T10:50:05;118349.16;;;-140.64;96.09
7930;BME280;4010;42.698;23.124;2023-12-07T10:52:36;118349.16;;;-140.64;95.75
7930;BME280;4010;42.698;23.124;2023-12-07T10:55:07;118349.16;;;-140.64;95.61
7930;BME280;4010;42.698;23.124;2023-12-07T10:57:35;118349.16;;;-140.64;94.73
7930;BME280;4010;42.698;23.124;2023-12-07T11:00:07;118349.16;;;-140.64;94.70
7930;BME280;4010;42.698;23.124;2023-12-07T11:02:35;118349.16;;;-140.64;96.54
7930;BME280;4010;42.698;23.124;2023-12-07T11:05:03;118349.16;;;-140.64;96.92
7930;BME280;4010;42.698;23.124;2023-12-07T11:07:38;118349.16;;;-140.64;96.98
7930;BME280;4010;42.698;23.124;2023-12-07T11:10:24;118349.16;;;-140.64;98.13
7930;BME280;4010;42.698;23.124;2023-12-07T11:12:59;118349.16;;;-140.64;98.08
7930;BME280;4010;42.698;23.124;2023-12-07T11:15:29;118349.16;;;-140.64;97.25
7930;BME280;4010;42.698;23.124;2023-12-07T11:17:56;118349.16;;;-140.64;97.04
7930;BME280;4010;42.698;23.124;2023-12-07T11:20:32;118349.16;;;-140.64;98.03
7930;BME280;4010;42.698;23.124;2023-12-07T11:23:05;118349.16;;;-140.64;98.31
7930;BME280;4010;42.698;23.124;2023-12-07T11:25:33;118349.16;;;-140.64;97.25
7930;BME280;4010;42.698;23.124;2023-12-07T11:28:00;118349.16;;;-140.64;96.54
7930;BME280;4010;42.698;23.124;2023-12-07T11:30:30;118349.16;;;-140.64;95.52
7930;BME280;4010;42.698;23.124;2023-12-07T11:32:57;118349.16;;;-140.64;96.57
7930;BME280;4010;42.698;23.124;2023-12-07T11:35:24;118349.16;;;-140.64;97.83
7930;BME280;4010;42.698;23.124;2023-12-07T11:38:04;118349.16;;;-140.64;98.34
7930;BME280;4010;42.698;23.124;2023-12-07T11:40:35;118349.16;;;-140.64;97.11
7930;BME280;4010;42.698;23.124;2023-12-07T11:43:02;118349.16;;;-140.64;96.52
7930;BME280;4010;42.698;23.124;2023-12-07T11:45:39;118349.16;;;-140.64;97.44
7930;BME280;4010;42.698;23.124;2023-12-07T11:48:07;118349.16;;;-140.64;96.84
7930;BME280;4010;42.698;23.124;2023-12-07T11:50:34;118349.16;;;-140.64;98.57
7930;BME280;4010;42.698;23.124;2023-12-07T11:53:00;118349.16;;;-140.64;99.42
7930;BME280;4010;42.698;23.124;2023-12-07T11:55:27;118349.16;;;-140.64;97.14
7930;BME280;4010;42.698;23.124;2023-12-07T11:57:54;118349.16;;;-140.64;97.84
7930;BME280;4010;42.698;23.124;2023-12-07T12:00:21;118349.16;;;-140.64;97.33
7930;BME280;4010;42.698;23.124;2023-12-07T12:02:49;118349.16;;;-140.64;96.87
7930;BME280;4010;42.698;23.124;2023-12-07T12:05:16;118349.16;;;-140.64;96.75
7930;BME280;4010;42.698;23.124;2023-12-07T12:07:43;118349.16;;;-140.64;97.43
7930;BME280;4010;42.698;23.124;2023-12-07T12:10:10;118349.16;;;-140.64;96.87
7930;BME280;4010;42.698;23.124;2023-12-07T12:12:38;118349.16;;;-140.64;96.07
7930;BME280;4010;42.698;23.124;2023-12-07T12:15:06;118349.16;;;-140.64;96.87
7930;BME280;4010;42.698;23.124;2023-12-07T12:17:35;118349.16;;;-140.64;97.94
7930;BME280;4010;42.698;23.124;2023-12-07T12:20:04;118349.16;;;-140.64;97.28
7930;BME280;4010;42.698;23.124;2023-12-07T12:22:31;118349.16;;;-140.64;96.56
7930;BME280;4010;42.698;23.124;2023-12-07T12:24:58;118349.16;;;-140.64;95.55
7930;BME280;4010;42.698;23.124;2023-12-07T12:27:25;118349.16;;;-140.64;95.83
7930;BME280;4010;42.698;23.124;2023-12-07T12:29:52;118349.16;;;-140.64;96.37
7930;BME280;4010;42.698;23.124;2023-12-07T12:32:18;118349.16;;;-140.64;96.14
7930;BME280;4010;42.698;23.124;2023-12-07T12:34:51;118349.16;;;-140.64;96.22